sensor_id;sensor_type;location;lat;lon;timestamp;P1;durP1;ratioP1;P2;durP2;ratioP2
6651;SDS011;3362;50.892;10.692;2023-03-11T00:01:56;3.88;;;1.83;;
6651;SDS011;3362;50.892;10.692;2023-03-11T00:04:23;2.72;;;1.10;;
6651;SDS011;3362;50.892;10.692;2023-03-11T00:06:50;4.22;;;2.20;;
6651;SDS011;3362;50.892;10.692;2023-03-11T00:09:17;2.00;;;0.87;;
6651;SDS011;3362;50.892;10.692;2023-03-11T00:11:43;2.20;;;1.00;;
6651;SDS011;3362;50.892;10.692;2023-03-11T00:14:10;3.03;;;1.38;;
6651;SDS011;3362;50.892;10.692;2023-03-11T00:16:36;0.60;;;0.60;;
6651;SDS011;3362;50.892;10.692;2023-03-11T00:19:02;1.15;;;0.57;;
6651;SDS011;3362;50.892;10.692;2023-03-11T00:21:28;1.97;;;1.00;;
6651;SDS011;3362;50.892;10.692;2023-03-11T00:23:54;1.48;;;1.00;;
6651;SDS011;3362;50.892;10.692;2023-03-11T00:26:24;3.58;;;1.40;;
6651;SDS011;3362;50.892;10.692;2023-03-11T00:28:50;0.70;;;0.60;;
6651;SDS011;3362;50.892;10.692;2023-03-11T00:31:16;1.75;;;1.20;;
6651;SDS011;3362;50.892;10.692;2023-03-11T00:33:43;3.35;;;1.13;;
6651;SDS011;3362;50.892;10.692;2023-03-11T00:36:11;3.13;;;1.93;;
6651;SDS011;3362;50.892;10.692;2023-03-11T00:38:38;2.50;;;1.13;;
6651;SDS011;3362;50.892;10.692;2023-03-11T00:41:05;2.23;;;1.37;;
6651;SDS011;3362;50.892;10.692;2023-03-11T00:43:32;2.47;;;1.35;;
6651;SDS011;3362;50.892;10.692;2023-03-11T00:45:58;1.98;;;1.08;;
6651;SDS011;3362;50.892;10.692;2023-03-11T00:48:24;2.90;;;1.40;;
6651;SDS011;3362;50.892;10.692;2023-03-11T00:50:51;1.80;;;1.00;;
6651;SDS011;3362;50.892;10.692;2023-03-11T00:53:17;1.25;;;1.00;;
6651;SDS011;3362;50.892;10.692;2023-03-11T00:55:43;2.50;;;1.42;;
6651;SDS011;3362;50.892;10.692;2023-03-11T00:58:09;1.55;;;1.08;;
6651;SDS011;3362;50.892;10.692;2023-03-11T01:00:37;1.55;;;1.42;;
6651;SDS011;3362;50.892;10.692;2023-03-11T01:03:04;1.63;;;1.25;;
6651;SDS011;3362;50.892;10.692;2023-03-11T01:05:31;2.35;;;1.10;;
6651;SDS011;3362;50.892;10.692;2023-03-11T01:07:58;1.43;;;1.20;;
6651;SDS011;3362;50.892;10.692;2023-03-11T01:10:25;1.83;;;1.40;;
6651;SDS011;3362;50.892;10.692;2023-03-11T01:12:51;1.23;;;0.73;;
6651;SDS011;3362;50.892;10.692;2023-03-11T01:15:19;2.38;;;1.05;;
6651;SDS011;3362;50.892;10.692;2023-03-11T01:17:47;1.30;;;0.90;;
6651;SDS011;3362;50.892;10.692;2023-03-11T01:20:13;1.80;;;1.05;;
6651;SDS011;3362;50.892;10.692;2023-03-11T01:22:40;2.58;;;1.25;;
6651;SDS011;3362;50.892;10.692;2023-03-11T01:25:06;1.33;;;0.77;;
6651;SDS011;3362;50.892;10.692;2023-03-11T01:27:33;2.50;;;1.45;;
6651;SDS011;3362;50.892;10.692;2023-03-11T01:30:00;1.73;;;1.10;;
6651;SDS011;3362;50.892;10.692;2023-03-11T01:32:26;1.60;;;0.93;;
6651;SDS011;3362;50.892;10.692;2023-03-11T01:34:53;1.60;;;0.73;;
6651;SDS011;3362;50.892;10.692;2023-03-11T01:37:20;2.47;;;0.93;;
6651;SDS011;3362;50.892;10.692;2023-03-11T01:39:46;1.07;;;0.70;;
6651;SDS011;3362;50.892;10.692;2023-03-11T01:42:12;0.93;;;0.80;;
6651;SDS011;3362;50.892;10.692;2023-03-11T01:44:38;1.63;;;0.77;;
6651;SDS011;3362;50.892;10.692;2023-03-11T01:47:28;0.63;;;0.30;;
6651;SDS011;3362;50.892;10.692;2023-03-11T01:49:58;0.80;;;0.70;;
6651;SDS011;3362;50.892;10.692;2023-03-11T01:52:24;0.68;;;0.40;;
6651;SDS011;3362;50.892;10.692;2023-03-11T01:54:50;0.45;;;0.13;;
6651;SDS011;3362;50.892;10.692;2023-03-11T01:57:17;1.08;;;0.60;;
6651;SDS011;3362;50.892;10.692;2023-03-11T01:59:44;2.38;;;0.68;;
6651;SDS011;3362;50.892;10.692;2023-03-11T02:02:13;1.02;;;0.95;;
6651;SDS011;3362;50.892;10.692;2023-03-11T02:04:41;0.55;;;0.30;;
6651;SDS011;3362;50.892;10.692;2023-03-11T02:07:09;0.88;;;0.85;;
6651;SDS011;3362;50.892;10.692;2023-03-11T02:09:36;0.45;;;0.40;;
6651;SDS011;3362;50.892;10.692;2023-03-11T02:12:02;1.27;;;0.40;;
6651;SDS011;3362;50.892;10.692;2023-03-11T02:14:29;1.00;;;0.60;;
6651;SDS011;3362;50.892;10.692;2023-03-11T02:16:56;0.93;;;0.45;;
6651;SDS011;3362;50.892;10.692;2023-03-11T02:19:25;0.82;;;0.50;;
6651;SDS011;3362;50.892;10.692;2023-03-11T02:21:55;0.75;;;0.60;;
6651;SDS011;3362;50.892;10.692;2023-03-11T02:24:25;0.57;;;0.52;;
6651;SDS011;3362;50.892;10.692;2023-03-11T02:26:57;0.43;;;0.28;;
6651;SDS011;3362;50.892;10.692;2023-03-11T02:29:24;0.80;;;0.70;;
6651;SDS011;3362;50.892;10.692;2023-03-11T02:31:51;0.90;;;0.70;;
6651;SDS011;3362;50.892;10.692;2023-03-11T02:34:19;0.55;;;0.43;;
6651;SDS011;3362;50.892;10.692;2023-03-11T02:36:46;1.10;;;0.67;;
6651;SDS011;3362;50.892;10.692;2023-03-11T02:39:13;0.70;;;0.60;;
6651;SDS011;3362;50.892;10.692;2023-03-11T02:41:40;0.50;;;0.50;;
6651;SDS011;3362;50.892;10.692;2023-03-11T02:44:08;0.57;;;0.55;;
6651;SDS011;3362;50.892;10.692;2023-03-11T02:46:35;0.40;;;0.40;;
6651;SDS011;3362;50.892;10.692;2023-03-11T02:49:03;1.20;;;0.40;;
6651;SDS011;3362;50.892;10.692;2023-03-11T02:51:30;0.82;;;0.40;;
6651;SDS011;3362;50.892;10.692;2023-03-11T02:53:57;1.40;;;0.82;;
6651;SDS011;3362;50.892;10.692;2023-03-11T02:56:24;1.80;;;0.90;;
6651;SDS011;3362;50.892;10.692;2023-03-11T02:58:50;0.73;;;0.65;;
6651;SDS011;3362;50.892;10.692;2023-03-11T03:01:18;1.13;;;0.80;;
6651;SDS011;3362;50.892;10.692;2023-03-11T03:03:44;0.63;;;0.55;;
6651;SDS011;3362;50.892;10.692;2023-03-11T03:06:10;1.42;;;0.82;;
6651;SDS011;3362;50.892;10.692;2023-03-11T03:08:37;0.88;;;0.60;;
6651;SDS011;3362;50.892;10.692;2023-03-11T03:11:03;2.53;;;1.10;;
6651;SDS011;3362;50.892;10.692;2023-03-11T03:13:30;0.77;;;0.73;;
6651;SDS011;3362;50.892;10.692;2023-03-11T03:15:56;2.15;;;0.82;;
6651;SDS011;3362;50.892;10.692;2023-03-11T03:18:24;1.37;;;0.80;;
6651;SDS011;3362;50.892;10.692;2023-03-11T03:20:50;2.22;;;0.80;;
6651;SDS011;3362;50.892;10.692;2023-03-11T03:23:17;2.05;;;0.98;;
6651;SDS011;3362;50.892;10.692;2023-03-11T03:25:44;1.38;;;0.80;;
6651;SDS011;3362;50.892;10.692;2023-03-11T03:28:10;2.30;;;0.73;;
6651;SDS011;3362;50.892;10.692;2023-03-11T03:30:36;0.70;;;0.70;;
6651;SDS011;3362;50.892;10.692;2023-03-11T03:33:03;0.47;;;0.47;;
6651;SDS011;3362;50.892;10.692;2023-03-11T03:35:31;0.57;;;0.30;;
6651;SDS011;3362;50.892;10.692;2023-03-11T03:37:57;4.07;;;0.77;;
6651;SDS011;3362;50.892;10.692;2023-03-11T03:40:24;0.90;;;0.50;;
6651;SDS011;3362;50.892;10.692;2023-03-11T03:42:50;0.88;;;0.40;;
6651;SDS011;3362;50.892;10.692;2023-03-11T03:45:16;0.85;;;0.60;;
6651;SDS011;3362;50.892;10.692;2023-03-11T03:47:43;0.98;;;0.60;;
6651;SDS011;3362;50.892;10.692;2023-03-11T03:50:10;1.20;;;0.73;;
6651;SDS011;3362;50.892;10.692;2023-03-11T03:52:38;2.55;;;0.52;;
6651;SDS011;3362;50.892;10.692;2023-03-11T03:55:05;0.50;;;0.50;;
6651;SDS011;3362;50.892;10.692;2023-03-11T03:57:31;0.30;;;0.30;;
6651;SDS011;3362;50.892;10.692;2023-03-11T03:59:57;3.70;;;0.70;;
6651;SDS011;3362;50.892;10.692;2023-03-11T04:02:24;0.45;;;0.45;;
6651;SDS011;3362;50.892;10.692;2023-03-11T04:04:50;1.97;;;0.47;;
6651;SDS011;3362;50.892;10.692;2023-03-11T04:07:16;1.07;;;0.50;;
6651;SDS011;3362;50.892;10.692;2023-03-11T04:09:44;0.47;;;0.40;;
6651;SDS011;3362;50.892;10.692;2023-03-11T04:12:10;0.95;;;0.60;;
6651;SDS011;3362;50.892;10.692;2023-03-11T04:14:38;0.77;;;0.73;;
6651;SDS011;3362;50.892;10.692;2023-03-11T04:17:04;3.30;;;0.40;;
6651;SDS011;3362;50.892;10.692;2023-03-11T04:19:30;0.40;;;0.40;;
6651;SDS011;3362;50.892;10.692;2023-03-11T04:21:57;0.90;;;0.45;;
6651;SDS011;3362;50.892;10.692;2023-03-11T04:24:23;0.90;;;0.50;;
6651;SDS011;3362;50.892;10.692;2023-03-11T04:26:50;2.53;;;0.90;;
6651;SDS011;3362;50.892;10.692;2023-03-11T04:29:16;1.05;;;0.85;;
6651;SDS011;3362;50.892;10.692;2023-03-11T04:31:43;5.43;;;0.98;;
6651;SDS011;3362;50.892;10.692;2023-03-11T04:34:09;0.40;;;0.38;;
6651;SDS011;3362;50.892;10.692;2023-03-11T04:36:35;1.02;;;0.50;;
6651;SDS011;3362;50.892;10.692;2023-03-11T04:39:02;0.50;;;0.50;;
6651;SDS011;3362;50.892;10.692;2023-03-11T04:41:28;0.93;;;0.80;;
6651;SDS011;3362;50.892;10.692;2023-03-11T04:43:57;0.40;;;0.40;;
6651;SDS011;3362;50.892;10.692;2023-03-11T04:46:23;2.97;;;0.80;;
6651;SDS011;3362;50.892;10.692;2023-03-11T04:48:50;8.67;;;0.50;;
6651;SDS011;3362;50.892;10.692;2023-03-11T04:51:16;3.00;;;0.28;;
6651;SDS011;3362;50.892;10.692;2023-03-11T04:53:42;0.40;;;0.40;;
6651;SDS011;3362;50.892;10.692;2023-03-11T04:56:09;1.07;;;0.40;;
6651;SDS011;3362;50.892;10.692;2023-03-11T04:58:35;0.98;;;0.63;;
6651;SDS011;3362;50.892;10.692;2023-03-11T05:01:02;3.97;;;0.87;;
6651;SDS011;3362;50.892;10.692;2023-03-11T05:03:29;1.38;;;0.80;;
6651;SDS011;3362;50.892;10.692;2023-03-11T05:05:55;1.33;;;0.70;;
6651;SDS011;3362;50.892;10.692;2023-03-11T05:08:21;1.27;;;0.70;;
6651;SDS011;3362;50.892;10.692;2023-03-11T05:10:48;2.42;;;1.02;;
6651;SDS011;3362;50.892;10.692;2023-03-11T05:13:14;1.30;;;0.53;;
6651;SDS011;3362;50.892;10.692;2023-03-11T05:15:40;2.33;;;0.83;;
6651;SDS011;3362;50.892;10.692;2023-03-11T05:18:08;2.65;;;0.68;;
6651;SDS011;3362;50.892;10.692;2023-03-11T05:20:34;0.80;;;0.50;;
6651;SDS011;3362;50.892;10.692;2023-03-11T05:23:00;1.03;;;0.73;;
6651;SDS011;3362;50.892;10.692;2023-03-11T05:25:26;0.40;;;0.40;;
6651;SDS011;3362;50.892;10.692;2023-03-11T05:27:53;2.88;;;0.63;;
6651;SDS011;3362;50.892;10.692;2023-03-11T05:30:19;0.77;;;0.60;;
6651;SDS011;3362;50.892;10.692;2023-03-11T05:32:45;1.02;;;0.60;;
6651;SDS011;3362;50.892;10.692;2023-03-11T05:35:12;0.20;;;0.20;;
6651;SDS011;3362;50.892;10.692;2023-03-11T05:37:39;4.60;;;0.47;;
6651;SDS011;3362;50.892;10.692;2023-03-11T05:40:05;4.07;;;0.60;;
6651;SDS011;3362;50.892;10.692;2023-03-11T05:42:32;1.98;;;0.47;;
6651;SDS011;3362;50.892;10.692;2023-03-11T05:44:58;0.63;;;0.63;;
6651;SDS011;3362;50.892;10.692;2023-03-11T05:47:24;0.50;;;0.50;;
6651;SDS011;3362;50.892;10.692;2023-03-11T05:49:50;0.60;;;0.53;;
6651;SDS011;3362;50.892;10.692;2023-03-11T05:52:18;1.60;;;0.60;;
6651;SDS011;3362;50.892;10.692;2023-03-11T05:54:47;1.40;;;0.90;;
6651;SDS011;3362;50.892;10.692;2023-03-11T05:57:13;3.30;;;0.50;;
6651;SDS011;3362;50.892;10.692;2023-03-11T05:59:39;1.92;;;0.90;;
6651;SDS011;3362;50.892;10.692;2023-03-11T06:02:06;3.67;;;0.77;;
6651;SDS011;3362;50.892;10.692;2023-03-11T06:04:32;0.73;;;0.50;;
6651;SDS011;3362;50.892;10.692;2023-03-11T06:06:58;3.53;;;0.60;;
6651;SDS011;3362;50.892;10.692;2023-03-11T06:09:26;0.43;;;0.40;;
6651;SDS011;3362;50.892;10.692;2023-03-11T06:11:52;1.98;;;0.52;;
6651;SDS011;3362;50.892;10.692;2023-03-11T06:14:18;1.73;;;0.40;;
6651;SDS011;3362;50.892;10.692;2023-03-11T06:16:44;1.10;;;0.47;;
6651;SDS011;3362;50.892;10.692;2023-03-11T06:19:11;0.65;;;0.40;;
6651;SDS011;3362;50.892;10.692;2023-03-11T06:21:37;0.57;;;0.57;;
6651;SDS011;3362;50.892;10.692;2023-03-11T06:24:03;1.77;;;0.60;;
6651;SDS011;3362;50.892;10.692;2023-03-11T06:26:31;0.90;;;0.63;;
6651;SDS011;3362;50.892;10.692;2023-03-11T06:28:57;0.93;;;0.60;;
6651;SDS011;3362;50.892;10.692;2023-03-11T06:31:24;2.15;;;1.02;;
6651;SDS011;3362;50.892;10.692;2023-03-11T06:33:51;1.83;;;0.85;;
6651;SDS011;3362;50.892;10.692;2023-03-11T06:36:19;1.37;;;0.70;;
6651;SDS011;3362;50.892;10.692;2023-03-11T06:38:46;2.67;;;1.08;;
6651;SDS011;3362;50.892;10.692;2023-03-11T06:41:14;1.20;;;0.90;;
6651;SDS011;3362;50.892;10.692;2023-03-11T06:43:41;1.77;;;0.82;;
6651;SDS011;3362;50.892;10.692;2023-03-11T06:46:08;0.63;;;0.40;;
6651;SDS011;3362;50.892;10.692;2023-03-11T06:48:35;0.80;;;0.50;;
6651;SDS011;3362;50.892;10.692;2023-03-11T06:51:01;1.17;;;0.98;;
6651;SDS011;3362;50.892;10.692;2023-03-11T06:53:27;8.85;;;0.85;;
6651;SDS011;3362;50.892;10.692;2023-03-11T06:55:57;2.90;;;1.03;;
6651;SDS011;3362;50.892;10.692;2023-03-11T06:58:24;3.00;;;0.70;;
6651;SDS011;3362;50.892;10.692;2023-03-11T07:00:52;2.53;;;0.93;;
6651;SDS011;3362;50.892;10.692;2023-03-11T07:03:18;3.25;;;0.65;;
6651;SDS011;3362;50.892;10.692;2023-03-11T07:05:44;0.80;;;0.80;;
6651;SDS011;3362;50.892;10.692;2023-03-11T07:08:10;3.55;;;0.55;;
6651;SDS011;3362;50.892;10.692;2023-03-11T07:10:37;0.65;;;0.45;;
6651;SDS011;3362;50.892;10.692;2023-03-11T07:13:03;1.60;;;1.00;;
6651;SDS011;3362;50.892;10.692;2023-03-11T07:15:29;1.75;;;0.60;;
6651;SDS011;3362;50.892;10.692;2023-03-11T07:17:56;1.70;;;0.75;;
6651;SDS011;3362;50.892;10.692;2023-03-11T07:20:23;1.67;;;1.50;;
6651;SDS011;3362;50.892;10.692;2023-03-11T07:22:49;1.38;;;0.85;;
6651;SDS011;3362;50.892;10.692;2023-03-11T07:25:15;3.10;;;1.10;;
6651;SDS011;3362;50.892;10.692;2023-03-11T07:27:41;4.78;;;1.17;;
6651;SDS011;3362;50.892;10.692;2023-03-11T07:30:08;2.40;;;1.00;;
6651;SDS011;3362;50.892;10.692;2023-03-11T07:32:34;0.80;;;0.52;;
6651;SDS011;3362;50.892;10.692;2023-03-11T07:35:02;2.72;;;1.02;;
6651;SDS011;3362;50.892;10.692;2023-03-11T07:37:28;3.53;;;1.05;;
6651;SDS011;3362;50.892;10.692;2023-03-11T07:39:54;1.63;;;0.75;;
6651;SDS011;3362;50.892;10.692;2023-03-11T07:42:20;1.67;;;0.73;;
6651;SDS011;3362;50.892;10.692;2023-03-11T07:44:48;0.90;;;0.80;;
6651;SDS011;3362;50.892;10.692;2023-03-11T07:47:15;4.50;;;0.82;;
6651;SDS011;3362;50.892;10.692;2023-03-11T07:49:41;1.95;;;0.88;;
6651;SDS011;3362;50.892;10.692;2023-03-11T07:52:08;2.10;;;0.75;;
6651;SDS011;3362;50.892;10.692;2023-03-11T07:54:34;3.70;;;0.98;;
6651;SDS011;3362;50.892;10.692;2023-03-11T07:57:01;1.10;;;0.80;;
6651;SDS011;3362;50.892;10.692;2023-03-11T07:59:27;3.53;;;0.68;;
6651;SDS011;3362;50.892;10.692;2023-03-11T08:01:53;2.83;;;0.70;;
6651;SDS011;3362;50.892;10.692;2023-03-11T08:04:21;3.03;;;1.23;;
6651;SDS011;3362;50.892;10.692;2023-03-11T08:06:47;4.07;;;0.93;;
6651;SDS011;3362;50.892;10.692;2023-03-11T08:09:14;1.03;;;0.90;;
6651;SDS011;3362;50.892;10.692;2023-03-11T08:11:41;1.77;;;0.68;;
6651;SDS011;3362;50.892;10.692;2023-03-11T08:14:07;1.52;;;0.95;;
6651;SDS011;3362;50.892;10.692;2023-03-11T08:16:33;4.63;;;0.93;;
6651;SDS011;3362;50.892;10.692;2023-03-11T08:18:59;4.10;;;1.23;;
6651;SDS011;3362;50.892;10.692;2023-03-11T08:21:26;5.95;;;1.55;;
6651;SDS011;3362;50.892;10.692;2023-03-11T08:23:55;1.80;;;1.00;;
6651;SDS011;3362;50.892;10.692;2023-03-11T08:26:23;2.40;;;0.80;;
6651;SDS011;3362;50.892;10.692;2023-03-11T08:28:49;2.85;;;1.10;;
6651;SDS011;3362;50.892;10.692;2023-03-11T08:31:16;6.05;;;0.95;;
6651;SDS011;3362;50.892;10.692;2023-03-11T08:33:43;2.25;;;1.23;;
6651;SDS011;3362;50.892;10.692;2023-03-11T08:36:10;2.58;;;1.25;;
6651;SDS011;3362;50.892;10.692;2023-03-11T08:38:36;2.70;;;1.70;;
6651;SDS011;3362;50.892;10.692;2023-03-11T08:41:02;1.52;;;1.30;;
6651;SDS011;3362;50.892;10.692;2023-03-11T08:43:30;1.50;;;1.25;;
6651;SDS011;3362;50.892;10.692;2023-03-11T08:45:58;2.30;;;0.98;;
6651;SDS011;3362;50.892;10.692;2023-03-11T08:48:24;2.70;;;0.98;;
6651;SDS011;3362;50.892;10.692;2023-03-11T08:50:51;3.42;;;1.02;;
6651;SDS011;3362;50.892;10.692;2023-03-11T08:53:17;2.13;;;0.55;;
6651;SDS011;3362;50.892;10.692;2023-03-11T08:55:43;4.00;;;0.70;;
6651;SDS011;3362;50.892;10.692;2023-03-11T08:58:09;4.05;;;1.60;;
6651;SDS011;3362;50.892;10.692;2023-03-11T09:00:37;2.53;;;1.05;;
6651;SDS011;3362;50.892;10.692;2023-03-11T09:03:03;1.45;;;0.43;;
6651;SDS011;3362;50.892;10.692;2023-03-11T09:05:29;3.25;;;0.95;;
6651;SDS011;3362;50.892;10.692;2023-03-11T09:07:55;3.42;;;0.75;;
6651;SDS011;3362;50.892;10.692;2023-03-11T09:10:22;1.70;;;1.45;;
6651;SDS011;3362;50.892;10.692;2023-03-11T09:12:48;2.80;;;1.40;;
6651;SDS011;3362;50.892;10.692;2023-03-11T09:15:14;1.10;;;0.45;;
6651;SDS011;3362;50.892;10.692;2023-03-11T09:17:42;4.70;;;0.47;;
6651;SDS011;3362;50.892;10.692;2023-03-11T09:20:10;1.42;;;0.85;;
6651;SDS011;3362;50.892;10.692;2023-03-11T09:22:36;7.50;;;0.80;;
6651;SDS011;3362;50.892;10.692;2023-03-11T09:25:03;0.82;;;0.57;;
6651;SDS011;3362;50.892;10.692;2023-03-11T09:27:29;1.95;;;0.65;;
6651;SDS011;3362;50.892;10.692;2023-03-11T09:29:55;0.60;;;0.40;;
6651;SDS011;3362;50.892;10.692;2023-03-11T09:32:21;3.15;;;0.57;;
6651;SDS011;3362;50.892;10.692;2023-03-11T09:34:49;2.40;;;0.60;;
6651;SDS011;3362;50.892;10.692;2023-03-11T09:37:15;1.00;;;0.70;;
6651;SDS011;3362;50.892;10.692;2023-03-11T09:39:41;0.80;;;0.50;;
6651;SDS011;3362;50.892;10.692;2023-03-11T09:42:10;3.40;;;0.63;;
6651;SDS011;3362;50.892;10.692;2023-03-11T09:44:40;1.13;;;0.45;;
6651;SDS011;3362;50.892;10.692;2023-03-11T09:47:25;2.05;;;0.65;;
6651;SDS011;3362;50.892;10.692;2023-03-11T09:50:05;3.83;;;0.50;;
6651;SDS011;3362;50.892;10.692;2023-03-11T09:52:35;4.13;;;0.75;;
6651;SDS011;3362;50.892;10.692;2023-03-11T09:55:03;1.15;;;0.43;;
6651;SDS011;3362;50.892;10.692;2023-03-11T09:57:31;7.82;;;1.15;;
6651;SDS011;3362;50.892;10.692;2023-03-11T09:59:58;1.40;;;0.45;;
6651;SDS011;3362;50.892;10.692;2023-03-11T10:02:24;3.25;;;0.55;;
6651;SDS011;3362;50.892;10.692;2023-03-11T10:04:52;0.57;;;0.57;;
6651;SDS011;3362;50.892;10.692;2023-03-11T10:07:22;5.25;;;1.40;;
6651;SDS011;3362;50.892;10.692;2023-03-11T10:09:51;1.52;;;0.90;;
6651;SDS011;3362;50.892;10.692;2023-03-11T10:12:20;0.95;;;0.63;;
6651;SDS011;3362;50.892;10.692;2023-03-11T10:14:52;1.70;;;0.85;;
6651;SDS011;3362;50.892;10.692;2023-03-11T10:17:24;2.10;;;1.02;;
6651;SDS011;3362;50.892;10.692;2023-03-11T10:19:54;6.32;;;2.50;;
6651;SDS011;3362;50.892;10.692;2023-03-11T10:22:25;6.45;;;3.30;;
6651;SDS011;3362;50.892;10.692;2023-03-11T10:25:01;12.27;;;5.70;;
6651;SDS011;3362;50.892;10.692;2023-03-11T10:27:29;8.23;;;4.95;;
6651;SDS011;3362;50.892;10.692;2023-03-11T10:29:58;4.53;;;2.58;;
6651;SDS011;3362;50.892;10.692;2023-03-11T10:32:27;4.20;;;1.17;;
6651;SDS011;3362;50.892;10.692;2023-03-11T10:34:57;0.68;;;0.57;;
6651;SDS011;3362;50.892;10.692;2023-03-11T10:37:27;0.73;;;0.57;;
6651;SDS011;3362;50.892;10.692;2023-03-11T10:39:56;1.17;;;0.40;;
6651;SDS011;3362;50.892;10.692;2023-03-11T10:42:26;2.72;;;0.88;;
6651;SDS011;3362;50.892;10.692;2023-03-11T10:44:53;2.53;;;0.57;;
6651;SDS011;3362;50.892;10.692;2023-03-11T10:47:20;3.13;;;0.77;;
6651;SDS011;3362;50.892;10.692;2023-03-11T10:49:46;0.88;;;0.80;;
6651;SDS011;3362;50.892;10.692;2023-03-11T10:52:13;2.72;;;0.50;;
6651;SDS011;3362;50.892;10.692;2023-03-11T10:54:41;0.35;;;0.35;;
6651;SDS011;3362;50.892;10.692;2023-03-11T10:57:18;0.77;;;0.32;;
6651;SDS011;3362;50.892;10.692;2023-03-11T10:59:47;2.58;;;1.10;;
6651;SDS011;3362;50.892;10.692;2023-03-11T11:02:21;4.32;;;1.15;;
6651;SDS011;3362;50.892;10.692;2023-03-11T11:04:49;6.20;;;1.60;;
6651;SDS011;3362;50.892;10.692;2023-03-11T11:07:28;3.83;;;1.00;;
6651;SDS011;3362;50.892;10.692;2023-03-11T11:12:37;4.47;;;1.40;;
6651;SDS011;3362;50.892;10.692;2023-03-11T11:15:19;2.08;;;0.77;;
6651;SDS011;3362;50.892;10.692;2023-03-11T11:17:46;5.43;;;1.10;;
6651;SDS011;3362;50.892;10.692;2023-03-11T11:20:14;2.38;;;0.85;;
6651;SDS011;3362;50.892;10.692;2023-03-11T11:22:46;6.47;;;2.15;;
6651;SDS011;3362;50.892;10.692;2023-03-11T11:25:23;2.60;;;0.80;;
6651;SDS011;3362;50.892;10.692;2023-03-11T11:27:53;4.43;;;1.00;;
6651;SDS011;3362;50.892;10.692;2023-03-11T11:30:20;5.82;;;1.17;;
6651;SDS011;3362;50.892;10.692;2023-03-11T11:32:47;3.10;;;1.13;;
6651;SDS011;3362;50.892;10.692;2023-03-11T11:35:17;1.30;;;0.80;;
6651;SDS011;3362;50.892;10.692;2023-03-11T11:37:45;2.17;;;1.13;;
6651;SDS011;3362;50.892;10.692;2023-03-11T11:40:16;2.97;;;1.00;;
6651;SDS011;3362;50.892;10.692;2023-03-11T11:42:44;1.60;;;0.75;;
6651;SDS011;3362;50.892;10.692;2023-03-11T11:45:14;4.50;;;0.77;;
6651;SDS011;3362;50.892;10.692;2023-03-11T11:47:42;1.13;;;0.65;;
6651;SDS011;3362;50.892;10.692;2023-03-11T11:50:12;4.20;;;0.82;;
6651;SDS011;3362;50.892;10.692;2023-03-11T11:52:41;2.55;;;0.70;;
6651;SDS011;3362;50.892;10.692;2023-03-11T11:55:12;1.17;;;0.40;;
6651;SDS011;3362;50.892;10.692;2023-03-11T11:57:43;7.63;;;0.90;;
6651;SDS011;3362;50.892;10.692;2023-03-11T12:00:15;6.85;;;1.45;;
6651;SDS011;3362;50.892;10.692;2023-03-11T12:02:45;1.33;;;0.55;;
6651;SDS011;3362;50.892;10.692;2023-03-11T12:05:16;1.65;;;0.85;;
6651;SDS011;3362;50.892;10.692;2023-03-11T12:07:52;4.25;;;0.73;;
6651;SDS011;3362;50.892;10.692;2023-03-11T12:10:22;13.10;;;2.88;;
6651;SDS011;3362;50.892;10.692;2023-03-11T12:12:53;8.02;;;2.83;;
6651;SDS011;3362;50.892;10.692;2023-03-11T12:15:27;5.28;;;2.55;;
6651;SDS011;3362;50.892;10.692;2023-03-11T12:17:55;3.88;;;1.35;;
6651;SDS011;3362;50.892;10.692;2023-03-11T12:20:24;5.07;;;1.00;;
6651;SDS011;3362;50.892;10.692;2023-03-11T12:22:56;1.75;;;0.70;;
6651;SDS011;3362;50.892;10.692;2023-03-11T12:25:30;2.85;;;0.55;;
6651;SDS011;3362;50.892;10.692;2023-03-11T12:28:01;4.25;;;1.67;;
6651;SDS011;3362;50.892;10.692;2023-03-11T12:30:35;3.75;;;0.70;;
6651;SDS011;3362;50.892;10.692;2023-03-11T12:33:03;4.00;;;0.93;;
6651;SDS011;3362;50.892;10.692;2023-03-11T12:35:30;1.88;;;0.50;;
6651;SDS011;3362;50.892;10.692;2023-03-11T12:37:58;0.73;;;0.52;;
6651;SDS011;3362;50.892;10.692;2023-03-11T12:40:45;2.78;;;0.55;;
6651;SDS011;3362;50.892;10.692;2023-03-11T12:43:22;1.65;;;1.10;;
6651;SDS011;3362;50.892;10.692;2023-03-11T12:45:50;3.42;;;0.70;;
6651;SDS011;3362;50.892;10.692;2023-03-11T12:48:32;0.90;;;0.50;;
6651;SDS011;3362;50.892;10.692;2023-03-11T12:50:59;1.63;;;0.57;;
6651;SDS011;3362;50.892;10.692;2023-03-11T12:53:40;3.30;;;0.52;;
6651;SDS011;3362;50.892;10.692;2023-03-11T12:56:08;3.25;;;0.90;;
6651;SDS011;3362;50.892;10.692;2023-03-11T12:58:52;2.70;;;0.93;;
6651;SDS011;3362;50.892;10.692;2023-03-11T13:01:31;0.90;;;0.65;;
6651;SDS011;3362;50.892;10.692;2023-03-11T13:04:04;0.75;;;0.50;;
6651;SDS011;3362;50.892;10.692;2023-03-11T13:06:41;1.10;;;0.70;;
6651;SDS011;3362;50.892;10.692;2023-03-11T13:09:12;0.68;;;0.52;;
6651;SDS011;3362;50.892;10.692;2023-03-11T13:11:41;2.75;;;0.50;;
6651;SDS011;3362;50.892;10.692;2023-03-11T13:14:08;1.38;;;0.80;;
6651;SDS011;3362;50.892;10.692;2023-03-11T13:16:38;4.70;;;2.13;;
6651;SDS011;3362;50.892;10.692;2023-03-11T13:21:45;2.83;;;1.48;;
6651;SDS011;3362;50.892;10.692;2023-03-11T13:26:56;6.68;;;1.50;;
6651;SDS011;3362;50.892;10.692;2023-03-11T13:29:34;2.30;;;1.23;;
6651;SDS011;3362;50.892;10.692;2023-03-11T13:32:15;3.85;;;0.95;;
6651;SDS011;3362;50.892;10.692;2023-03-11T13:34:44;2.92;;;0.60;;
6651;SDS011;3362;50.892;10.692;2023-03-11T13:37:16;2.53;;;0.80;;
6651;SDS011;3362;50.892;10.692;2023-03-11T13:39:48;4.28;;;0.50;;
6651;SDS011;3362;50.892;10.692;2023-03-11T13:42:20;1.33;;;0.50;;
6651;SDS011;3362;50.892;10.692;2023-03-11T13:44:48;5.18;;;0.63;;
6651;SDS011;3362;50.892;10.692;2023-03-11T13:47:17;2.63;;;1.00;;
6651;SDS011;3362;50.892;10.692;2023-03-11T13:49:44;4.57;;;0.50;;
6651;SDS011;3362;50.892;10.692;2023-03-11T13:52:13;7.88;;;2.40;;
6651;SDS011;3362;50.892;10.692;2023-03-11T13:54:42;1.15;;;0.77;;
6651;SDS011;3362;50.892;10.692;2023-03-11T13:57:14;3.65;;;0.82;;
6651;SDS011;3362;50.892;10.692;2023-03-11T13:59:43;3.75;;;0.50;;
6651;SDS011;3362;50.892;10.692;2023-03-11T14:02:13;2.95;;;1.10;;
6651;SDS011;3362;50.892;10.692;2023-03-11T14:04:45;2.60;;;0.50;;
6651;SDS011;3362;50.892;10.692;2023-03-11T14:07:12;6.10;;;0.73;;
6651;SDS011;3362;50.892;10.692;2023-03-11T14:09:39;3.65;;;0.47;;
6651;SDS011;3362;50.892;10.692;2023-03-11T14:12:05;6.75;;;0.93;;
6651;SDS011;3362;50.892;10.692;2023-03-11T14:14:35;4.05;;;0.30;;
6651;SDS011;3362;50.892;10.692;2023-03-11T14:17:03;2.83;;;0.50;;
6651;SDS011;3362;50.892;10.692;2023-03-11T14:19:31;2.03;;;0.40;;
6651;SDS011;3362;50.892;10.692;2023-03-11T14:21:59;2.72;;;0.57;;
6651;SDS011;3362;50.892;10.692;2023-03-11T14:24:26;2.28;;;0.40;;
6651;SDS011;3362;50.892;10.692;2023-03-11T14:26:54;3.05;;;0.65;;
6651;SDS011;3362;50.892;10.692;2023-03-11T14:29:21;0.80;;;0.75;;
6651;SDS011;3362;50.892;10.692;2023-03-11T14:31:48;0.35;;;0.22;;
6651;SDS011;3362;50.892;10.692;2023-03-11T14:34:15;2.90;;;0.80;;
6651;SDS011;3362;50.892;10.692;2023-03-11T14:36:43;2.10;;;0.80;;
6651;SDS011;3362;50.892;10.692;2023-03-11T14:39:22;0.60;;;0.43;;
6651;SDS011;3362;50.892;10.692;2023-03-11T14:41:49;0.57;;;0.57;;
6651;SDS011;3362;50.892;10.692;2023-03-11T14:44:17;2.47;;;0.65;;
6651;SDS011;3362;50.892;10.692;2023-03-11T14:46:43;3.05;;;0.55;;
6651;SDS011;3362;50.892;10.692;2023-03-11T14:49:11;2.38;;;0.50;;
6651;SDS011;3362;50.892;10.692;2023-03-11T14:51:40;0.30;;;0.30;;
6651;SDS011;3362;50.892;10.692;2023-03-11T14:54:07;1.25;;;0.40;;
6651;SDS011;3362;50.892;10.692;2023-03-11T14:56:40;2.78;;;0.60;;
6651;SDS011;3362;50.892;10.692;2023-03-11T14:59:09;1.02;;;0.60;;
6651;SDS011;3362;50.892;10.692;2023-03-11T15:01:37;2.63;;;0.65;;
6651;SDS011;3362;50.892;10.692;2023-03-11T15:04:05;3.05;;;0.77;;
6651;SDS011;3362;50.892;10.692;2023-03-11T15:06:33;1.98;;;0.70;;
6651;SDS011;3362;50.892;10.692;2023-03-11T15:09:01;0.30;;;0.30;;
6651;SDS011;3362;50.892;10.692;2023-03-11T15:11:27;2.95;;;0.60;;
6651;SDS011;3362;50.892;10.692;2023-03-11T15:14:12;1.05;;;0.20;;